Time,TemperatureF,DewpointF,PressureIn,WindDirection,WindDirectionDegrees,WindSpeedMPH,WindSpeedGustMPH,Humidity,HourlyPrecipIn,Conditions,Clouds,dailyrainin,SolarRadiationWatts/m^2,SoftwareType,DateUTC
2013-01-06 16:33:00,43.0,25.0,-100.00,SW,231,4.0,8.0,49,0.00,,,0.01,138.000000,,2013-01-06 21:33:00,
2013-01-06 16:43:00,43.0,25.0,-100.00,SW,231,4.0,8.0,49,0.00,,,0.01,138.000000,,2013-01-06 21:43:00,
2013-01-06 16:53:00,43.0,25.0,-100.00,SW,231,4.0,8.0,49,0.00,,,0.01,138.000000,,2013-01-06 21:53:00,
2013-01-06 17:02:00,43.0,25.0,-100.00,SW,231,4.0,8.0,49,0.00,,,0.01,138.000000,,2013-01-06 22:02:00,
2013-01-06 17:33:00,40.0,25.0,-100.00,SW,224,4.0,7.0,55,0.00,,,0.01,15.000000,,2013-01-06 22:33:00,
2013-01-06 17:43:00,40.0,25.0,-100.00,SW,224,4.0,7.0,55,0.00,,,0.01,15.000000,,2013-01-06 22:43:00,
2013-01-06 17:53:00,40.0,25.0,-100.00,SW,224,4.0,7.0,55,0.00,,,0.01,15.000000,,2013-01-06 22:53:00,
2013-01-06 18:02:00,40.0,25.0,-100.00,SW,224,4.0,7.0,55,0.00,,,0.01,15.000000,,2013-01-06 23:02:00,
2013-01-06 18:33:00,39.0,25.0,-100.00,SW,222,4.0,9.0,56,0.00,,,0.01,0.000000,,2013-01-06 23:33:00,
2013-01-06 18:43:00,39.0,25.0,-100.00,SW,222,4.0,9.0,56,0.00,,,0.01,0.000000,,2013-01-06 23:43:00,
2013-01-06 18:53:00,39.0,25.0,-100.00,SW,222,4.0,9.0,56,0.00,,,0.01,0.000000,,2013-01-06 23:53:00,
2013-01-06 19:02:00,39.0,25.0,-100.00,SW,222,4.0,9.0,56,0.00,,,0.01,0.000000,,2013-01-07 00:02:00,
2013-01-06 19:33:00,38.0,25.0,-100.00,WSW,237,5.0,10.0,60,0.00,,,0.01,0.000000,,2013-01-07 00:33:00,
2013-01-06 19:43:00,38.0,25.0,-100.00,WSW,237,5.0,10.0,60,0.00,,,0.01,0.000000,,2013-01-07 00:43:00,
2013-01-06 19:53:00,38.0,25.0,-100.00,WSW,237,5.0,10.0,60,0.00,,,0.01,0.000000,,2013-01-07 00:53:00,
2013-01-06 20:02:00,38.0,25.0,-100.00,WSW,237,5.0,10.0,60,0.00,,,0.01,0.000000,,2013-01-07 01:02:00,
2013-01-06 20:32:00,33.0,25.0,-100.00,ESE,103,0.0,7.0,71,0.00,,,0.01,0.000000,,2013-01-07 01:32:00,
2013-01-06 20:43:00,33.0,25.0,-100.00,ESE,103,0.0,7.0,71,0.00,,,0.01,0.000000,,2013-01-07 01:43:00,
2013-01-06 20:53:00,33.0,25.0,-100.00,ESE,103,0.0,7.0,71,0.00,,,0.01,0.000000,,2013-01-07 01:53:00,
2013-01-06 21:02:00,33.0,25.0,-100.00,ESE,103,0.0,7.0,71,0.00,,,0.01,0.000000,,2013-01-07 02:02:00,
2013-01-06 21:32:00,35.0,25.0,-100.00,SW,223,3.0,6.0,66,0.00,,,0.01,0.000000,,2013-01-07 02:32:00,
2013-01-06 21:43:00,35.0,25.0,-100.00,SW,223,3.0,6.0,66,0.00,,,0.01,0.000000,,2013-01-07 02:43:00,
2013-01-06 21:53:00,35.0,25.0,-100.00,SW,223,3.0,6.0,66,0.00,,,0.01,0.000000,,2013-01-07 02:53:00,
2013-01-06 22:02:00,35.0,25.0,-100.00,SW,223,3.0,6.0,66,0.00,,,0.01,0.000000,,2013-01-07 03:02:00,
2013-01-06 22:33:00,34.0,24.0,-100.00,SSW,212,3.0,5.0,66,0.00,,,0.01,0.000000,,2013-01-07 03:33:00,
2013-01-06 22:43:00,34.0,24.0,-100.00,SSW,212,3.0,5.0,66,0.00,,,0.01,0.000000,,2013-01-07 03:43:00,
2013-01-06 22:53:00,34.0,24.0,-100.00,SSW,212,3.0,5.0,66,0.00,,,0.01,0.000000,,2013-01-07 03:53:00,
2013-01-06 23:02:00,34.0,24.0,-100.00,SSW,212,3.0,5.0,66,0.00,,,0.01,0.000000,,2013-01-07 04:02:00,
2013-01-06 23:33:00,34.0,24.0,-100.00,SW,227,4.0,5.0,67,0.00,,,0.01,0.000000,,2013-01-07 04:33:00,
2013-01-06 23:42:00,34.0,24.0,-100.00,SW,227,4.0,5.0,67,0.00,,,0.01,0.000000,,2013-01-07 04:42:00,
2013-01-06 23:53:00,34.0,24.0,-100.00,SW,227,4.0,5.0,67,0.00,,,0.01,0.000000,,2013-01-07 04:53:00,